sensor_id;sensor_type;location;lat;lon;timestamp;P1;durP1;ratioP1;P2;durP2;ratioP2
55202;SDS011;41077;52.956;6.796;2023-04-25T00:01:00;37.78;;;7.07;;
55202;SDS011;41077;52.956;6.796;2023-04-25T00:03:28;27.95;;;7.80;;
55202;SDS011;41077;52.956;6.796;2023-04-25T00:05:54;20.92;;;6.97;;
55202;SDS011;41077;52.956;6.796;2023-04-25T00:08:21;21.90;;;6.43;;
55202;SDS011;41077;52.956;6.796;2023-04-25T00:10:47;31.10;;;7.90;;
55202;SDS011;41077;52.956;6.796;2023-04-25T00:13:14;33.60;;;7.47;;
55202;SDS011;41077;52.956;6.796;2023-04-25T00:15:42;30.70;;;6.65;;
55202;SDS011;41077;52.956;6.796;2023-04-25T00:18:08;26.58;;;7.32;;
55202;SDS011;41077;52.956;6.796;2023-04-25T00:20:34;32.13;;;6.20;;
55202;SDS011;41077;52.956;6.796;2023-04-25T00:23:00;27.92;;;6.10;;
55202;SDS011;41077;52.956;6.796;2023-04-25T00:25:26;21.42;;;6.38;;
55202;SDS011;41077;52.956;6.796;2023-04-25T00:27:52;26.20;;;6.18;;
55202;SDS011;41077;52.956;6.796;2023-04-25T00:30:18;24.50;;;6.30;;
55202;SDS011;41077;52.956;6.796;2023-04-25T00:32:43;25.92;;;7.72;;
55202;SDS011;41077;52.956;6.796;2023-04-25T00:35:09;25.55;;;5.97;;
55202;SDS011;41077;52.956;6.796;2023-04-25T00:37:35;24.98;;;6.82;;
55202;SDS011;41077;52.956;6.796;2023-04-25T00:40:01;27.65;;;6.63;;
55202;SDS011;41077;52.956;6.796;2023-04-25T00:42:27;20.38;;;5.70;;
55202;SDS011;41077;52.956;6.796;2023-04-25T00:44:54;25.50;;;6.93;;
55202;SDS011;41077;52.956;6.796;2023-04-25T00:47:21;21.73;;;7.93;;
55202;SDS011;41077;52.956;6.796;2023-04-25T00:49:48;26.90;;;6.85;;
55202;SDS011;41077;52.956;6.796;2023-04-25T00:52:14;30.95;;;8.02;;
55202;SDS011;41077;52.956;6.796;2023-04-25T00:54:40;27.08;;;6.45;;
55202;SDS011;41077;52.956;6.796;2023-04-25T00:57:06;28.42;;;6.35;;
55202;SDS011;41077;52.956;6.796;2023-04-25T00:59:31;25.15;;;5.88;;
55202;SDS011;41077;52.956;6.796;2023-04-25T01:01:58;26.55;;;7.50;;
55202;SDS011;41077;52.956;6.796;2023-04-25T01:04:24;27.38;;;7.10;;
55202;SDS011;41077;52.956;6.796;2023-04-25T01:06:52;22.75;;;6.65;;
55202;SDS011;41077;52.956;6.796;2023-04-25T01:09:17;23.40;;;5.38;;
55202;SDS011;41077;52.956;6.796;2023-04-25T01:11:44;29.15;;;8.32;;
55202;SDS011;41077;52.956;6.796;2023-04-25T01:14:10;29.17;;;7.32;;
55202;SDS011;41077;52.956;6.796;2023-04-25T01:16:36;24.13;;;7.20;;
55202;SDS011;41077;52.956;6.796;2023-04-25T01:19:04;33.00;;;7.72;;
55202;SDS011;41077;52.956;6.796;2023-04-25T01:21:36;30.03;;;6.73;;
55202;SDS011;41077;52.956;6.796;2023-04-25T01:24:02;33.28;;;6.93;;
55202;SDS011;41077;52.956;6.796;2023-04-25T01:26:28;25.13;;;7.65;;
55202;SDS011;41077;52.956;6.796;2023-04-25T01:28:54;33.40;;;6.82;;
55202;SDS011;41077;52.956;6.796;2023-04-25T01:31:20;19.65;;;5.15;;
55202;SDS011;41077;52.956;6.796;2023-04-25T01:33:46;27.90;;;7.90;;
55202;SDS011;41077;52.956;6.796;2023-04-25T01:36:12;23.55;;;5.93;;
55202;SDS011;41077;52.956;6.796;2023-04-25T01:38:39;26.55;;;6.28;;
55202;SDS011;41077;52.956;6.796;2023-04-25T01:41:05;22.77;;;7.05;;
55202;SDS011;41077;52.956;6.796;2023-04-25T01:43:31;27.00;;;6.68;;
55202;SDS011;41077;52.956;6.796;2023-04-25T01:45:57;23.20;;;5.85;;
55202;SDS011;41077;52.956;6.796;2023-04-25T01:48:22;21.55;;;6.25;;
55202;SDS011;41077;52.956;6.796;2023-04-25T01:50:48;23.25;;;7.03;;
55202;SDS011;41077;52.956;6.796;2023-04-25T01:53:14;22.48;;;6.20;;
55202;SDS011;41077;52.956;6.796;2023-04-25T01:55:40;22.80;;;6.07;;
55202;SDS011;41077;52.956;6.796;2023-04-25T01:58:05;23.40;;;6.30;;
55202;SDS011;41077;52.956;6.796;2023-04-25T02:00:35;26.30;;;6.35;;
55202;SDS011;41077;52.956;6.796;2023-04-25T02:03:03;29.58;;;7.35;;
55202;SDS011;41077;52.956;6.796;2023-04-25T02:05:34;24.08;;;5.75;;
55202;SDS011;41077;52.956;6.796;2023-04-25T02:08:00;17.48;;;5.68;;
55202;SDS011;41077;52.956;6.796;2023-04-25T02:10:26;27.40;;;5.18;;
55202;SDS011;41077;52.956;6.796;2023-04-25T02:12:52;29.42;;;6.15;;
55202;SDS011;41077;52.956;6.796;2023-04-25T02:15:17;24.13;;;5.68;;
55202;SDS011;41077;52.956;6.796;2023-04-25T02:17:43;23.05;;;5.68;;
55202;SDS011;41077;52.956;6.796;2023-04-25T02:20:10;24.25;;;6.78;;
55202;SDS011;41077;52.956;6.796;2023-04-25T02:22:36;20.83;;;6.00;;
55202;SDS011;41077;52.956;6.796;2023-04-25T02:25:02;22.70;;;5.78;;
55202;SDS011;41077;52.956;6.796;2023-04-25T02:27:29;23.48;;;5.50;;
55202;SDS011;41077;52.956;6.796;2023-04-25T02:29:55;20.85;;;6.78;;
55202;SDS011;41077;52.956;6.796;2023-04-25T02:32:21;23.88;;;6.53;;
55202;SDS011;41077;52.956;6.796;2023-04-25T02:34:47;23.50;;;6.43;;
55202;SDS011;41077;52.956;6.796;2023-04-25T02:37:13;24.35;;;5.53;;
55202;SDS011;41077;52.956;6.796;2023-04-25T02:39:39;22.85;;;7.00;;
55202;SDS011;41077;52.956;6.796;2023-04-25T02:42:04;24.55;;;6.97;;
55202;SDS011;41077;52.956;6.796;2023-04-25T02:44:30;25.73;;;6.28;;
55202;SDS011;41077;52.956;6.796;2023-04-25T02:46:56;21.95;;;6.60;;
55202;SDS011;41077;52.956;6.796;2023-04-25T02:49:21;19.40;;;5.07;;
55202;SDS011;41077;52.956;6.796;2023-04-25T02:51:47;23.10;;;6.10;;
55202;SDS011;41077;52.956;6.796;2023-04-25T02:54:13;21.98;;;5.03;;
55202;SDS011;41077;52.956;6.796;2023-04-25T02:56:38;22.88;;;5.47;;
55202;SDS011;41077;52.956;6.796;2023-04-25T02:59:04;20.52;;;6.88;;
55202;SDS011;41077;52.956;6.796;2023-04-25T03:01:30;19.65;;;4.55;;
55202;SDS011;41077;52.956;6.796;2023-04-25T03:03:55;21.20;;;5.57;;
55202;SDS011;41077;52.956;6.796;2023-04-25T03:06:21;19.95;;;5.40;;
55202;SDS011;41077;52.956;6.796;2023-04-25T03:08:47;18.17;;;5.45;;
55202;SDS011;41077;52.956;6.796;2023-04-25T03:11:12;17.95;;;5.45;;
55202;SDS011;41077;52.956;6.796;2023-04-25T03:13:38;19.15;;;4.70;;
55202;SDS011;41077;52.956;6.796;2023-04-25T03:16:04;28.23;;;6.32;;
55202;SDS011;41077;52.956;6.796;2023-04-25T03:18:30;17.77;;;4.18;;
55202;SDS011;41077;52.956;6.796;2023-04-25T03:20:56;22.33;;;5.00;;
55202;SDS011;41077;52.956;6.796;2023-04-25T03:23:21;25.60;;;4.95;;
55202;SDS011;41077;52.956;6.796;2023-04-25T03:25:47;21.77;;;4.47;;
55202;SDS011;41077;52.956;6.796;2023-04-25T03:28:13;25.55;;;6.30;;
55202;SDS011;41077;52.956;6.796;2023-04-25T03:30:38;22.25;;;5.85;;
55202;SDS011;41077;52.956;6.796;2023-04-25T03:33:04;18.27;;;4.72;;
55202;SDS011;41077;52.956;6.796;2023-04-25T03:35:30;21.83;;;5.40;;
55202;SDS011;41077;52.956;6.796;2023-04-25T03:37:55;20.23;;;4.30;;
55202;SDS011;41077;52.956;6.796;2023-04-25T03:40:21;16.25;;;5.45;;
55202;SDS011;41077;52.956;6.796;2023-04-25T03:42:47;25.08;;;5.63;;
55202;SDS011;41077;52.956;6.796;2023-04-25T03:45:12;20.35;;;5.07;;
55202;SDS011;41077;52.956;6.796;2023-04-25T03:47:38;23.42;;;4.78;;
55202;SDS011;41077;52.956;6.796;2023-04-25T03:50:04;21.00;;;5.03;;
55202;SDS011;41077;52.956;6.796;2023-04-25T03:52:30;19.70;;;4.47;;
55202;SDS011;41077;52.956;6.796;2023-04-25T03:54:55;15.88;;;4.93;;
55202;SDS011;41077;52.956;6.796;2023-04-25T03:57:21;19.17;;;4.18;;
55202;SDS011;41077;52.956;6.796;2023-04-25T03:59:47;17.48;;;5.22;;
55202;SDS011;41077;52.956;6.796;2023-04-25T04:02:12;23.15;;;4.50;;
55202;SDS011;41077;52.956;6.796;2023-04-25T04:04:38;22.33;;;4.18;;
55202;SDS011;41077;52.956;6.796;2023-04-25T04:07:04;21.55;;;5.45;;
55202;SDS011;41077;52.956;6.796;2023-04-25T04:09:30;12.68;;;3.65;;
55202;SDS011;41077;52.956;6.796;2023-04-25T04:11:55;14.93;;;4.60;;
55202;SDS011;41077;52.956;6.796;2023-04-25T04:14:21;20.92;;;4.75;;
55202;SDS011;41077;52.956;6.796;2023-04-25T04:16:47;20.67;;;5.15;;
55202;SDS011;41077;52.956;6.796;2023-04-25T04:19:12;20.17;;;4.63;;
55202;SDS011;41077;52.956;6.796;2023-04-25T04:21:38;19.58;;;4.35;;
55202;SDS011;41077;52.956;6.796;2023-04-25T04:24:04;25.58;;;5.80;;
55202;SDS011;41077;52.956;6.796;2023-04-25T04:26:31;20.38;;;3.97;;
55202;SDS011;41077;52.956;6.796;2023-04-25T04:28:57;20.95;;;5.10;;
55202;SDS011;41077;52.956;6.796;2023-04-25T04:31:24;18.73;;;4.30;;
55202;SDS011;41077;52.956;6.796;2023-04-25T04:33:50;25.23;;;7.22;;
55202;SDS011;41077;52.956;6.796;2023-04-25T04:36:16;18.52;;;4.68;;
55202;SDS011;41077;52.956;6.796;2023-04-25T04:38:45;22.83;;;5.57;;
55202;SDS011;41077;52.956;6.796;2023-04-25T04:41:10;20.25;;;4.45;;
55202;SDS011;41077;52.956;6.796;2023-04-25T04:43:36;13.07;;;3.78;;
55202;SDS011;41077;52.956;6.796;2023-04-25T04:46:02;20.20;;;4.85;;
55202;SDS011;41077;52.956;6.796;2023-04-25T04:48:29;13.63;;;3.80;;
55202;SDS011;41077;52.956;6.796;2023-04-25T04:50:57;11.82;;;4.40;;
55202;SDS011;41077;52.956;6.796;2023-04-25T04:53:23;12.02;;;3.22;;
55202;SDS011;41077;52.956;6.796;2023-04-25T04:55:49;16.15;;;4.05;;
55202;SDS011;41077;52.956;6.796;2023-04-25T04:58:15;14.65;;;3.60;;
55202;SDS011;41077;52.956;6.796;2023-04-25T05:00:40;14.85;;;3.47;;
55202;SDS011;41077;52.956;6.796;2023-04-25T05:03:06;13.02;;;3.72;;
55202;SDS011;41077;52.956;6.796;2023-04-25T05:05:32;15.30;;;3.30;;
55202;SDS011;41077;52.956;6.796;2023-04-25T05:07:57;14.20;;;3.75;;
55202;SDS011;41077;52.956;6.796;2023-04-25T05:10:23;12.55;;;3.33;;
55202;SDS011;41077;52.956;6.796;2023-04-25T05:12:49;15.85;;;3.63;;
55202;SDS011;41077;52.956;6.796;2023-04-25T05:15:15;17.65;;;3.40;;
55202;SDS011;41077;52.956;6.796;2023-04-25T05:17:40;10.32;;;3.33;;
55202;SDS011;41077;52.956;6.796;2023-04-25T05:20:07;8.80;;;2.95;;
55202;SDS011;41077;52.956;6.796;2023-04-25T05:22:34;21.65;;;3.45;;
55202;SDS011;41077;52.956;6.796;2023-04-25T05:25:00;13.68;;;4.07;;
55202;SDS011;41077;52.956;6.796;2023-04-25T05:27:26;15.18;;;3.15;;
55202;SDS011;41077;52.956;6.796;2023-04-25T05:29:52;8.82;;;2.90;;
55202;SDS011;41077;52.956;6.796;2023-04-25T05:32:17;16.40;;;3.53;;
55202;SDS011;41077;52.956;6.796;2023-04-25T05:34:43;19.83;;;3.65;;
55202;SDS011;41077;52.956;6.796;2023-04-25T05:37:09;8.90;;;2.95;;
55202;SDS011;41077;52.956;6.796;2023-04-25T05:39:35;14.27;;;4.53;;
55202;SDS011;41077;52.956;6.796;2023-04-25T05:42:00;25.02;;;3.63;;
55202;SDS011;41077;52.956;6.796;2023-04-25T05:44:27;18.10;;;3.60;;
55202;SDS011;41077;52.956;6.796;2023-04-25T05:46:53;14.65;;;4.70;;
55202;SDS011;41077;52.956;6.796;2023-04-25T05:49:20;13.20;;;3.05;;
55202;SDS011;41077;52.956;6.796;2023-04-25T05:51:46;11.07;;;4.40;;
55202;SDS011;41077;52.956;6.796;2023-04-25T05:54:11;10.48;;;3.28;;
55202;SDS011;41077;52.956;6.796;2023-04-25T05:56:37;10.82;;;3.38;;
55202;SDS011;41077;52.956;6.796;2023-04-25T05:59:03;13.25;;;3.35;;
55202;SDS011;41077;52.956;6.796;2023-04-25T06:01:28;19.67;;;3.40;;
55202;SDS011;41077;52.956;6.796;2023-04-25T06:03:54;15.75;;;3.97;;
55202;SDS011;41077;52.956;6.796;2023-04-25T06:06:20;15.85;;;4.45;;
55202;SDS011;41077;52.956;6.796;2023-04-25T06:08:45;12.45;;;3.63;;
55202;SDS011;41077;52.956;6.796;2023-04-25T06:11:11;11.63;;;3.10;;
55202;SDS011;41077;52.956;6.796;2023-04-25T06:13:37;14.07;;;4.18;;
55202;SDS011;41077;52.956;6.796;2023-04-25T06:16:02;11.40;;;3.00;;
55202;SDS011;41077;52.956;6.796;2023-04-25T06:18:28;15.90;;;3.53;;
55202;SDS011;41077;52.956;6.796;2023-04-25T06:20:54;13.45;;;3.38;;
55202;SDS011;41077;52.956;6.796;2023-04-25T06:23:20;13.27;;;3.83;;
55202;SDS011;41077;52.956;6.796;2023-04-25T06:25:45;14.43;;;3.92;;
55202;SDS011;41077;52.956;6.796;2023-04-25T06:28:11;17.02;;;4.38;;
55202;SDS011;41077;52.956;6.796;2023-04-25T06:30:37;23.10;;;5.53;;
55202;SDS011;41077;52.956;6.796;2023-04-25T06:33:03;12.18;;;3.58;;
55202;SDS011;41077;52.956;6.796;2023-04-25T06:35:28;10.55;;;3.00;;
55202;SDS011;41077;52.956;6.796;2023-04-25T06:37:54;19.15;;;3.97;;
55202;SDS011;41077;52.956;6.796;2023-04-25T06:40:19;21.52;;;4.28;;
55202;SDS011;41077;52.956;6.796;2023-04-25T06:42:45;15.23;;;4.53;;
55202;SDS011;41077;52.956;6.796;2023-04-25T06:45:11;14.52;;;3.33;;
55202;SDS011;41077;52.956;6.796;2023-04-25T06:47:36;13.35;;;3.80;;
55202;SDS011;41077;52.956;6.796;2023-04-25T06:50:02;13.80;;;4.93;;
55202;SDS011;41077;52.956;6.796;2023-04-25T06:52:28;18.33;;;3.65;;
55202;SDS011;41077;52.956;6.796;2023-04-25T06:54:54;17.20;;;3.85;;
55202;SDS011;41077;52.956;6.796;2023-04-25T06:57:19;13.93;;;4.00;;
55202;SDS011;41077;52.956;6.796;2023-04-25T06:59:45;16.23;;;3.70;;
55202;SDS011;41077;52.956;6.796;2023-04-25T07:02:11;18.35;;;3.53;;
55202;SDS011;41077;52.956;6.796;2023-04-25T07:04:36;11.27;;;2.97;;
55202;SDS011;41077;52.956;6.796;2023-04-25T07:07:02;20.85;;;3.90;;
55202;SDS011;41077;52.956;6.796;2023-04-25T07:09:28;13.45;;;3.15;;
55202;SDS011;41077;52.956;6.796;2023-04-25T07:11:55;15.32;;;3.20;;
55202;SDS011;41077;52.956;6.796;2023-04-25T07:14:21;11.82;;;3.35;;
55202;SDS011;41077;52.956;6.796;2023-04-25T07:16:47;19.98;;;2.83;;
55202;SDS011;41077;52.956;6.796;2023-04-25T07:19:13;8.82;;;2.70;;
55202;SDS011;41077;52.956;6.796;2023-04-25T07:21:38;12.32;;;2.30;;
55202;SDS011;41077;52.956;6.796;2023-04-25T07:24:04;13.18;;;3.30;;
55202;SDS011;41077;52.956;6.796;2023-04-25T07:26:30;13.57;;;3.75;;
55202;SDS011;41077;52.956;6.796;2023-04-25T07:28:56;7.10;;;2.40;;
55202;SDS011;41077;52.956;6.796;2023-04-25T07:31:22;16.42;;;3.13;;
55202;SDS011;41077;52.956;6.796;2023-04-25T07:33:48;18.00;;;4.35;;
55202;SDS011;41077;52.956;6.796;2023-04-25T07:36:13;10.30;;;2.80;;
55202;SDS011;41077;52.956;6.796;2023-04-25T07:38:40;11.32;;;3.95;;
55202;SDS011;41077;52.956;6.796;2023-04-25T07:41:06;13.07;;;4.43;;
55202;SDS011;41077;52.956;6.796;2023-04-25T07:43:32;17.52;;;2.85;;
55202;SDS011;41077;52.956;6.796;2023-04-25T07:45:58;9.40;;;2.63;;
55202;SDS011;41077;52.956;6.796;2023-04-25T07:48:23;12.80;;;3.67;;
55202;SDS011;41077;52.956;6.796;2023-04-25T07:50:49;12.43;;;3.03;;
55202;SDS011;41077;52.956;6.796;2023-04-25T07:53:15;17.50;;;3.65;;
55202;SDS011;41077;52.956;6.796;2023-04-25T07:55:43;11.95;;;2.70;;
55202;SDS011;41077;52.956;6.796;2023-04-25T07:58:09;12.30;;;3.50;;
55202;SDS011;41077;52.956;6.796;2023-04-25T08:00:36;10.18;;;2.63;;
55202;SDS011;41077;52.956;6.796;2023-04-25T08:03:02;9.65;;;3.25;;
55202;SDS011;41077;52.956;6.796;2023-04-25T08:05:28;9.27;;;2.67;;
55202;SDS011;41077;52.956;6.796;2023-04-25T08:07:54;7.50;;;2.35;;
55202;SDS011;41077;52.956;6.796;2023-04-25T08:10:21;7.90;;;2.40;;
55202;SDS011;41077;52.956;6.796;2023-04-25T08:12:48;8.63;;;3.45;;
55202;SDS011;41077;52.956;6.796;2023-04-25T08:15:14;11.35;;;2.42;;
55202;SDS011;41077;52.956;6.796;2023-04-25T08:17:40;4.63;;;1.70;;
55202;SDS011;41077;52.956;6.796;2023-04-25T08:20:06;6.35;;;2.35;;
55202;SDS011;41077;52.956;6.796;2023-04-25T08:22:32;9.02;;;2.10;;
55202;SDS011;41077;52.956;6.796;2023-04-25T08:24:59;14.25;;;2.90;;
55202;SDS011;41077;52.956;6.796;2023-04-25T08:27:24;6.70;;;2.22;;
55202;SDS011;41077;52.956;6.796;2023-04-25T08:29:50;8.55;;;3.00;;
55202;SDS011;41077;52.956;6.796;2023-04-25T08:32:16;10.20;;;2.63;;
55202;SDS011;41077;52.956;6.796;2023-04-25T08:34:43;9.88;;;2.28;;
55202;SDS011;41077;52.956;6.796;2023-04-25T08:37:09;7.70;;;2.42;;
55202;SDS011;41077;52.956;6.796;2023-04-25T08:39:36;5.65;;;2.33;;
55202;SDS011;41077;52.956;6.796;2023-04-25T08:42:06;13.77;;;3.13;;
55202;SDS011;41077;52.956;6.796;2023-04-25T08:44:35;14.40;;;3.00;;
55202;SDS011;41077;52.956;6.796;2023-04-25T08:47:02;10.45;;;2.47;;
55202;SDS011;41077;52.956;6.796;2023-04-25T08:49:30;12.88;;;3.25;;
55202;SDS011;41077;52.956;6.796;2023-04-25T08:51:59;11.30;;;2.63;;
55202;SDS011;41077;52.956;6.796;2023-04-25T08:54:27;8.02;;;2.08;;
55202;SDS011;41077;52.956;6.796;2023-04-25T08:56:54;10.65;;;2.67;;
55202;SDS011;41077;52.956;6.796;2023-04-25T08:59:20;10.82;;;2.15;;
55202;SDS011;41077;52.956;6.796;2023-04-25T09:01:48;9.18;;;2.70;;
55202;SDS011;41077;52.956;6.796;2023-04-25T09:04:14;7.88;;;2.20;;
55202;SDS011;41077;52.956;6.796;2023-04-25T09:06:40;7.80;;;2.00;;
55202;SDS011;41077;52.956;6.796;2023-04-25T09:09:07;7.75;;;1.80;;
55202;SDS011;41077;52.956;6.796;2023-04-25T09:11:35;7.47;;;1.65;;
55202;SDS011;41077;52.956;6.796;2023-04-25T09:14:15;7.57;;;1.98;;
55202;SDS011;41077;52.956;6.796;2023-04-25T09:19:30;5.45;;;2.55;;
55202;SDS011;41077;52.956;6.796;2023-04-25T09:22:04;5.30;;;1.90;;
55202;SDS011;41077;52.956;6.796;2023-04-25T09:24:41;4.72;;;1.70;;
55202;SDS011;41077;52.956;6.796;2023-04-25T09:27:10;5.13;;;1.80;;
55202;SDS011;41077;52.956;6.796;2023-04-25T09:29:50;4.28;;;1.83;;
55202;SDS011;41077;52.956;6.796;2023-04-25T09:32:24;5.43;;;2.38;;
55202;SDS011;41077;52.956;6.796;2023-04-25T09:34:50;5.00;;;1.65;;
55202;SDS011;41077;52.956;6.796;2023-04-25T09:37:24;4.10;;;1.60;;
55202;SDS011;41077;52.956;6.796;2023-04-25T09:39:55;5.55;;;1.80;;
55202;SDS011;41077;52.956;6.796;2023-04-25T09:42:24;6.20;;;2.13;;
55202;SDS011;41077;52.956;6.796;2023-04-25T09:44:53;5.13;;;1.65;;
55202;SDS011;41077;52.956;6.796;2023-04-25T09:47:20;4.80;;;1.83;;
55202;SDS011;41077;52.956;6.796;2023-04-25T09:49:49;9.15;;;1.77;;
55202;SDS011;41077;52.956;6.796;2023-04-25T09:52:16;5.50;;;1.92;;
55202;SDS011;41077;52.956;6.796;2023-04-25T09:54:47;4.90;;;1.90;;
55202;SDS011;41077;52.956;6.796;2023-04-25T09:57:15;8.55;;;2.15;;
55202;SDS011;41077;52.956;6.796;2023-04-25T09:59:44;11.00;;;2.15;;
55202;SDS011;41077;52.956;6.796;2023-04-25T10:02:10;6.15;;;2.00;;
55202;SDS011;41077;52.956;6.796;2023-04-25T10:04:37;8.07;;;3.15;;
55202;SDS011;41077;52.956;6.796;2023-04-25T10:07:07;6.50;;;2.70;;
55202;SDS011;41077;52.956;6.796;2023-04-25T10:09:36;8.13;;;2.38;;
55202;SDS011;41077;52.956;6.796;2023-04-25T10:12:03;8.65;;;2.28;;
55202;SDS011;41077;52.956;6.796;2023-04-25T10:14:30;7.95;;;2.00;;
55202;SDS011;41077;52.956;6.796;2023-04-25T10:16:57;4.35;;;2.55;;
55202;SDS011;41077;52.956;6.796;2023-04-25T10:19:23;7.43;;;1.85;;
55202;SDS011;41077;52.956;6.796;2023-04-25T10:22:03;6.63;;;2.33;;
55202;SDS011;41077;52.956;6.796;2023-04-25T10:24:32;10.98;;;2.47;;
55202;SDS011;41077;52.956;6.796;2023-04-25T10:26:58;7.38;;;2.20;;
55202;SDS011;41077;52.956;6.796;2023-04-25T10:29:25;6.55;;;2.00;;
55202;SDS011;41077;52.956;6.796;2023-04-25T10:31:51;4.97;;;2.28;;
55202;SDS011;41077;52.956;6.796;2023-04-25T10:34:17;8.00;;;2.08;;
55202;SDS011;41077;52.956;6.796;2023-04-25T10:36:44;7.28;;;2.60;;
55202;SDS011;41077;52.956;6.796;2023-04-25T10:39:21;10.63;;;2.30;;
55202;SDS011;41077;52.956;6.796;2023-04-25T10:41:53;7.55;;;2.40;;
55202;SDS011;41077;52.956;6.796;2023-04-25T10:44:25;6.63;;;2.50;;
55202;SDS011;41077;52.956;6.796;2023-04-25T10:46:54;9.18;;;2.20;;
55202;SDS011;41077;52.956;6.796;2023-04-25T10:49:28;6.63;;;2.65;;
55202;SDS011;41077;52.956;6.796;2023-04-25T10:55:02;9.88;;;2.53;;
55202;SDS011;41077;52.956;6.796;2023-04-25T11:02:37;9.63;;;2.67;;
55202;SDS011;41077;52.956;6.796;2023-04-25T11:05:19;7.47;;;2.95;;
55202;SDS011;41077;52.956;6.796;2023-04-25T11:07:54;9.43;;;2.20;;
55202;SDS011;41077;52.956;6.796;2023-04-25T11:10:29;16.45;;;3.13;;
55202;SDS011;41077;52.956;6.796;2023-04-25T11:12:56;9.60;;;2.60;;
55202;SDS011;41077;52.956;6.796;2023-04-25T11:15:23;11.73;;;2.60;;
55202;SDS011;41077;52.956;6.796;2023-04-25T11:17:53;10.30;;;2.67;;
55202;SDS011;41077;52.956;6.796;2023-04-25T11:20:19;7.97;;;2.45;;
55202;SDS011;41077;52.956;6.796;2023-04-25T11:22:46;7.10;;;2.25;;
55202;SDS011;41077;52.956;6.796;2023-04-25T11:25:13;11.35;;;2.40;;
55202;SDS011;41077;52.956;6.796;2023-04-25T11:27:51;9.75;;;3.42;;
55202;SDS011;41077;52.956;6.796;2023-04-25T11:30:17;16.52;;;3.65;;
55202;SDS011;41077;52.956;6.796;2023-04-25T11:32:43;8.23;;;2.25;;
55202;SDS011;41077;52.956;6.796;2023-04-25T11:35:09;10.80;;;3.53;;
55202;SDS011;41077;52.956;6.796;2023-04-25T11:37:35;9.90;;;3.05;;
55202;SDS011;41077;52.956;6.796;2023-04-25T11:40:05;9.60;;;2.58;;
55202;SDS011;41077;52.956;6.796;2023-04-25T11:42:32;7.97;;;3.22;;
55202;SDS011;41077;52.956;6.796;2023-04-25T11:44:58;9.38;;;3.42;;
55202;SDS011;41077;52.956;6.796;2023-04-25T11:47:31;10.02;;;2.53;;
55202;SDS011;41077;52.956;6.796;2023-04-25T11:50:01;6.85;;;2.58;;
55202;SDS011;41077;52.956;6.796;2023-04-25T11:52:38;4.20;;;1.63;;
55202;SDS011;41077;52.956;6.796;2023-04-25T11:55:07;7.95;;;2.95;;
55202;SDS011;41077;52.956;6.796;2023-04-25T11:57:41;10.35;;;2.58;;
55202;SDS011;41077;52.956;6.796;2023-04-25T12:00:09;11.70;;;3.70;;
55202;SDS011;41077;52.956;6.796;2023-04-25T12:02:45;11.00;;;2.70;;
55202;SDS011;41077;52.956;6.796;2023-04-25T12:05:13;8.70;;;2.45;;
55202;SDS011;41077;52.956;6.796;2023-04-25T12:07:42;11.32;;;2.78;;
55202;SDS011;41077;52.956;6.796;2023-04-25T12:12:36;11.38;;;4.53;;
55202;SDS011;41077;52.956;6.796;2023-04-25T12:17:55;14.18;;;2.65;;
55202;SDS011;41077;52.956;6.796;2023-04-25T12:20:23;10.27;;;2.45;;
55202;SDS011;41077;52.956;6.796;2023-04-25T12:22:50;7.95;;;2.53;;
55202;SDS011;41077;52.956;6.796;2023-04-25T12:25:35;11.57;;;2.15;;
55202;SDS011;41077;52.956;6.796;2023-04-25T12:28:15;10.65;;;2.97;;
55202;SDS011;41077;52.956;6.796;2023-04-25T12:33:33;5.85;;;2.08;;
55202;SDS011;41077;52.956;6.796;2023-04-25T12:36:00;6.80;;;2.15;;
55202;SDS011;41077;52.956;6.796;2023-04-25T12:38:35;6.18;;;1.80;;
55202;SDS011;41077;52.956;6.796;2023-04-25T12:41:01;5.95;;;1.50;;
55202;SDS011;41077;52.956;6.796;2023-04-25T12:43:27;7.65;;;1.92;;
55202;SDS011;41077;52.956;6.796;2023-04-25T12:45:53;8.15;;;2.65;;
55202;SDS011;41077;52.956;6.796;2023-04-25T12:48:20;4.60;;;2.08;;
55202;SDS011;41077;52.956;6.796;2023-04-25T12:50:47;4.63;;;1.50;;
55202;SDS011;41077;52.956;6.796;2023-04-25T12:53:20;7.93;;;3.63;;
55202;SDS011;41077;52.956;6.796;2023-04-25T12:55:47;7.97;;;2.25;;
55202;SDS011;41077;52.956;6.796;2023-04-25T12:58:14;9.13;;;2.05;;
55202;SDS011;41077;52.956;6.796;2023-04-25T13:00:40;12.38;;;2.80;;
55202;SDS011;41077;52.956;6.796;2023-04-25T13:03:07;5.05;;;2.10;;
55202;SDS011;41077;52.956;6.796;2023-04-25T13:05:33;8.30;;;2.50;;
55202;SDS011;41077;52.956;6.796;2023-04-25T13:07:59;6.60;;;2.17;;
55202;SDS011;41077;52.956;6.796;2023-04-25T13:10:24;8.57;;;2.20;;
55202;SDS011;41077;52.956;6.796;2023-04-25T13:12:50;5.53;;;2.22;;
55202;SDS011;41077;52.956;6.796;2023-04-25T13:15:16;9.40;;;2.17;;
55202;SDS011;41077;52.956;6.796;2023-04-25T13:17:42;5.70;;;1.73;;
55202;SDS011;41077;52.956;6.796;2023-04-25T13:20:08;8.90;;;2.13;;
55202;SDS011;41077;52.956;6.796;2023-04-25T13:22:35;6.95;;;2.30;;
55202;SDS011;41077;52.956;6.796;2023-04-25T13:25:04;10.07;;;2.70;;
55202;SDS011;41077;52.956;6.796;2023-04-25T13:27:32;5.47;;;2.33;;
55202;SDS011;41077;52.956;6.796;2023-04-25T13:30:02;7.05;;;1.70;;
55202;SDS011;41077;52.956;6.796;2023-04-25T13:32:41;6.22;;;1.92;;
55202;SDS011;41077;52.956;6.796;2023-04-25T13:35:08;11.90;;;2.42;;
55202;SDS011;41077;52.956;6.796;2023-04-25T13:37:35;11.68;;;2.67;;
55202;SDS011;41077;52.956;6.796;2023-04-25T13:40:01;18.02;;;3.35;;
55202;SDS011;41077;52.956;6.796;2023-04-25T13:42:30;7.70;;;2.45;;
55202;SDS011;41077;52.956;6.796;2023-04-25T13:44:56;7.40;;;2.00;;
55202;SDS011;41077;52.956;6.796;2023-04-25T13:47:22;9.52;;;2.28;;
55202;SDS011;41077;52.956;6.796;2023-04-25T13:49:48;7.40;;;2.25;;
55202;SDS011;41077;52.956;6.796;2023-04-25T13:52:14;7.22;;;2.40;;
55202;SDS011;41077;52.956;6.796;2023-04-25T13:54:40;7.75;;;2.60;;
55202;SDS011;41077;52.956;6.796;2023-04-25T13:57:06;7.28;;;2.45;;
55202;SDS011;41077;52.956;6.796;2023-04-25T13:59:32;9.52;;;2.20;;
55202;SDS011;41077;52.956;6.796;2023-04-25T14:01:58;5.72;;;2.90;;
55202;SDS011;41077;52.956;6.796;2023-04-25T14:04:24;8.02;;;1.95;;
55202;SDS011;41077;52.956;6.796;2023-04-25T14:06:50;10.50;;;2.10;;
55202;SDS011;41077;52.956;6.796;2023-04-25T14:09:16;11.23;;;2.58;;
55202;SDS011;41077;52.956;6.796;2023-04-25T14:11:44;14.48;;;4.28;;
55202;SDS011;41077;52.956;6.796;2023-04-25T14:14:10;7.22;;;2.45;;
55202;SDS011;41077;52.956;6.796;2023-04-25T14:16:37;13.38;;;3.53;;
55202;SDS011;41077;52.956;6.796;2023-04-25T14:19:03;9.70;;;2.80;;
55202;SDS011;41077;52.956;6.796;2023-04-25T14:21:28;14.82;;;3.03;;
55202;SDS011;41077;52.956;6.796;2023-04-25T14:23:57;13.32;;;3.53;;
55202;SDS011;41077;52.956;6.796;2023-04-25T14:26:22;4.88;;;2.60;;
55202;SDS011;41077;52.956;6.796;2023-04-25T14:28:49;5.68;;;2.17;;
55202;SDS011;41077;52.956;6.796;2023-04-25T14:31:15;6.20;;;2.35;;
55202;SDS011;41077;52.956;6.796;2023-04-25T14:33:41;10.38;;;2.75;;
55202;SDS011;41077;52.956;6.796;2023-04-25T14:36:08;7.63;;;2.35;;
55202;SDS011;41077;52.956;6.796;2023-04-25T14:38:34;7.70;;;3.53;;
55202;SDS011;41077;52.956;6.796;2023-04-25T14:40:59;6.57;;;1.90;;
55202;SDS011;41077;52.956;6.796;2023-04-25T14:43:26;14.80;;;2.75;;
55202;SDS011;41077;52.956;6.796;2023-04-25T14:45:51;8.98;;;3.13;;
55202;SDS011;41077;52.956;6.796;2023-04-25T14:48:17;12.02;;;2.53;;
55202;SDS011;41077;52.956;6.796;2023-04-25T14:50:44;7.07;;;1.67;;
55202;SDS011;41077;52.956;6.796;2023-04-25T14:53:11;6.43;;;2.83;;
55202;SDS011;41077;52.956;6.796;2023-04-25T14:55:37;8.50;;;2.33;;